PWSweather.com
Personal Weather Stations
Station Observations
ME1989
Sicily, Barcellona Pozzo Di GottoIT

SicilyBarcellona Pozzo Di GottoIT

Lat: 38.1487398, Lon: 15.2113962

Elevation: 131

Station Type: Peet Bros

Latest ConditionsUpdated 6:40:09 PM GMT+01:01 Friday, Sep 19, 2014
Currently Today's Max Today's Min Today's Average
Temperature 84.7°F29.3°C 93.7°F34.3°C 82.1°F27.8°C 86.8°F30.4°C
Dew Point 66.2°F19.0°C 66.9°F19.4°C 60.1°F15.6°C 63.0°F17.2°C
Winds 5.1 mph S8.2 kmh S 14.8 mph SSW23.8 kmh SSW - 9.1 mph 14.6 kmh
Wind Gusts 8.1 mph13.0 kmh 255.1 mph410.5 kmh - -
Humidity 54% 54% 34% 46%
Pressure 30.00 in1015.9 mb 30.01 in1016.3 mb 29.95 in1014.2 mb -
Hour Temp Dew Point Humidity Winds Wind Gusts Pressure Precip Precip Rate Daily Precip Total
06:40 PM 84.7°F29.3°C 66.2°F19.0°C 54% 5.1 mph S8.2 kmh S 8.1 mph13.0 kmh 30.00 in1015.9 mb 0.00 in0.0 mm 0.00 in/hr0.0 mm/hr 0.00 in0.0 mm
06:30 PM 85.2°F29.6°C 66.1°F18.9°C 53% 2.9 mph S4.7 kmh S 3.4 mph5.5 kmh 30.00 in1015.9 mb 0.00 in0.0 mm 0.00 in/hr0.0 mm/hr 0.00 in0.0 mm
06:20 PM 85.0°F29.4°C 66.0°F18.9°C 53% 6.8 mph S10.9 kmh S 9.1 mph14.6 kmh 30.00 in1015.9 mb 0.00 in0.0 mm 0.00 in/hr0.0 mm/hr 0.00 in0.0 mm
06:10 PM 85.2°F29.6°C 66.1°F18.9°C 53% 7.9 mph S12.7 kmh S 14.2 mph22.9 kmh 29.99 in1015.6 mb 0.00 in0.0 mm 0.00 in/hr0.0 mm/hr 0.00 in0.0 mm
06:00 PM 85.6°F29.8°C 65.4°F18.6°C 51% 8.5 mph S13.7 kmh S 11.9 mph19.2 kmh 29.99 in1015.6 mb 0.00 in0.0 mm 0.00 in/hr0.0 mm/hr 0.00 in0.0 mm
05:50 PM 86.2°F30.1°C 66.0°F18.9°C 51% 8.4 mph S13.5 kmh S 10.6 mph17.1 kmh 29.99 in1015.6 mb 0.00 in0.0 mm 0.00 in/hr0.0 mm/hr 0.00 in0.0 mm
05:40 PM 86.7°F30.4°C 65.8°F18.8°C 50% 6.7 mph SSW10.8 kmh SSW 9.7 mph15.6 kmh 29.99 in1015.6 mb 0.00 in0.0 mm 0.00 in/hr0.0 mm/hr 0.00 in0.0 mm
05:30 PM 87.0°F30.6°C 65.5°F18.6°C 49% 11.1 mph S17.9 kmh S 16.0 mph25.7 kmh 29.99 in1015.6 mb 0.00 in0.0 mm 0.00 in/hr0.0 mm/hr 0.00 in0.0 mm
05:20 PM 88.0°F31.1°C 65.8°F18.8°C 48% 5.9 mph S9.5 kmh S 7.4 mph11.9 kmh 29.99 in1015.6 mb 0.00 in0.0 mm 0.00 in/hr0.0 mm/hr 0.00 in0.0 mm
05:10 PM 88.3°F31.3°C 65.5°F18.6°C 47% 4.1 mph SW6.6 kmh SW 5.8 mph9.3 kmh 29.99 in1015.6 mb 0.00 in0.0 mm 0.00 in/hr0.0 mm/hr 0.00 in0.0 mm
05:00 PM 88.1°F31.2°C 65.4°F18.6°C 47% 8.4 mph S13.5 kmh S 11.5 mph18.5 kmh 29.99 in1015.6 mb 0.00 in0.0 mm 0.00 in/hr0.0 mm/hr 0.00 in0.0 mm
04:50 PM 88.4°F31.3°C 65.6°F18.7°C 47% 7.6 mph S12.2 kmh S 9.8 mph15.8 kmh 29.99 in1015.6 mb 0.00 in0.0 mm 0.00 in/hr0.0 mm/hr 0.00 in0.0 mm
04:40 PM 88.7°F31.5°C 65.9°F18.8°C 47% 4.6 mph SSW7.4 kmh SSW 8.1 mph13.0 kmh 29.99 in1015.6 mb 0.00 in0.0 mm 0.00 in/hr0.0 mm/hr 0.00 in0.0 mm
04:30 PM 88.6°F31.4°C 66.4°F19.1°C 48% 6.6 mph SSW10.6 kmh SSW 7.8 mph12.6 kmh 29.99 in1015.6 mb 0.00 in0.0 mm 0.00 in/hr0.0 mm/hr 0.00 in0.0 mm
04:20 PM 88.5°F31.4°C 66.3°F19.1°C 48% 7.6 mph S12.2 kmh S 11.3 mph18.2 kmh 29.99 in1015.6 mb 0.00 in0.0 mm 0.00 in/hr0.0 mm/hr 0.00 in0.0 mm
04:10 PM 88.3°F31.3°C 66.1°F18.9°C 48% 10.0 mph SSW16.1 kmh SSW 14.6 mph23.5 kmh 29.99 in1015.6 mb 0.00 in0.0 mm 0.00 in/hr0.0 mm/hr 0.00 in0.0 mm
04:00 PM 88.5°F31.4°C 66.3°F19.1°C 48% 8.3 mph SW13.4 kmh SW 16.0 mph25.7 kmh 29.99 in1015.6 mb 0.00 in0.0 mm 0.00 in/hr0.0 mm/hr 0.00 in0.0 mm
03:50 PM 88.5°F31.4°C 66.9°F19.4°C 49% 8.1 mph SW13.0 kmh SW 14.0 mph22.5 kmh 29.99 in1015.6 mb 0.00 in0.0 mm 0.00 in/hr0.0 mm/hr 0.00 in0.0 mm
03:40 PM 88.4°F31.3°C 66.2°F19.0°C 48% 14.8 mph SSW23.8 kmh SSW 24.1 mph38.8 kmh 29.99 in1015.6 mb 0.00 in0.0 mm 0.00 in/hr0.0 mm/hr 0.00 in0.0 mm
03:30 PM 88.8°F31.6°C 66.0°F18.9°C 47% 12.5 mph SSW20.1 kmh SSW 16.5 mph26.6 kmh 29.99 in1015.6 mb 0.00 in0.0 mm 0.00 in/hr0.0 mm/hr 0.00 in0.0 mm
03:20 PM 89.5°F31.9°C 65.9°F18.8°C 46% 12.1 mph S19.5 kmh S 16.8 mph27.0 kmh 29.99 in1015.6 mb 0.00 in0.0 mm 0.00 in/hr0.0 mm/hr 0.00 in0.0 mm
03:10 PM 89.5°F31.9°C 66.0°F18.9°C 46% 13.9 mph S22.4 kmh S 19.5 mph31.4 kmh 30.00 in1015.9 mb 0.00 in0.0 mm 0.00 in/hr0.0 mm/hr 0.00 in0.0 mm
03:00 PM 90.2°F32.3°C 65.4°F18.6°C 44% 11.8 mph SSW19.0 kmh SSW 18.2 mph29.3 kmh 30.00 in1015.9 mb 0.00 in0.0 mm 0.00 in/hr0.0 mm/hr 0.00 in0.0 mm
02:50 PM 90.2°F32.3°C 65.3°F18.5°C 44% 10.8 mph SW17.4 kmh SW 19.5 mph31.4 kmh 30.00 in1015.9 mb 0.00 in0.0 mm 0.00 in/hr0.0 mm/hr 0.00 in0.0 mm
02:40 PM 90.4°F32.4°C 64.9°F18.3°C 43% 13.2 mph SSW21.2 kmh SSW 17.6 mph28.3 kmh 30.00 in1015.9 mb 0.00 in0.0 mm 0.00 in/hr0.0 mm/hr 0.00 in0.0 mm
02:30 PM 90.9°F32.7°C 65.3°F18.5°C 43% 10.0 mph SW16.1 kmh SW 13.3 mph21.4 kmh 30.01 in1016.3 mb 0.00 in0.0 mm 0.00 in/hr0.0 mm/hr 0.00 in0.0 mm
02:20 PM 91.4°F33.0°C 64.4°F18.0°C 41% 10.6 mph SW17.1 kmh SW 13.4 mph21.6 kmh 30.01 in1016.3 mb 0.00 in0.0 mm 0.00 in/hr0.0 mm/hr 0.00 in0.0 mm
02:10 PM 91.9°F33.3°C 64.1°F17.8°C 40% 9.9 mph SSW15.9 kmh SSW 13.6 mph21.9 kmh 30.01 in1016.3 mb 0.00 in0.0 mm 0.00 in/hr0.0 mm/hr 0.00 in0.0 mm
02:00 PM 91.5°F33.1°C 64.5°F18.1°C 41% 11.6 mph SSW18.7 kmh SSW 16.0 mph25.7 kmh 30.00 in1015.9 mb 0.00 in0.0 mm 0.00 in/hr0.0 mm/hr 0.00 in0.0 mm
01:50 PM 91.7°F33.2°C 63.9°F17.7°C 40% 11.1 mph SSW17.9 kmh SSW 14.6 mph23.5 kmh 30.00 in1015.9 mb 0.00 in0.0 mm 0.00 in/hr0.0 mm/hr 0.00 in0.0 mm
01:40 PM 92.0°F33.3°C 63.5°F17.5°C 39% 9.9 mph SSW15.9 kmh SSW 17.7 mph28.5 kmh 30.00 in1015.9 mb 0.00 in0.0 mm 0.00 in/hr0.0 mm/hr 0.00 in0.0 mm
01:30 PM 92.3°F33.5°C 63.0°F17.2°C 38% 12.9 mph SSW20.8 kmh SSW 19.8 mph31.9 kmh 30.00 in1015.9 mb 0.00 in0.0 mm 0.00 in/hr0.0 mm/hr 0.00 in0.0 mm
01:20 PM 92.8°F33.8°C 62.7°F17.1°C 37% 10.1 mph SSW16.3 kmh SSW 17.8 mph28.6 kmh 30.00 in1015.9 mb 0.00 in0.0 mm 0.00 in/hr0.0 mm/hr 0.00 in0.0 mm
01:10 PM 93.2°F34.0°C 62.3°F16.8°C 36% 8.1 mph SW13.0 kmh SW 14.5 mph23.3 kmh 30.00 in1015.9 mb 0.00 in0.0 mm 0.00 in/hr0.0 mm/hr 0.00 in0.0 mm
01:00 PM 92.9°F33.8°C 62.0°F16.7°C 36% 10.3 mph SSW16.6 kmh SSW 16.0 mph25.7 kmh 30.00 in1015.9 mb 0.00 in0.0 mm 0.00 in/hr0.0 mm/hr 0.00 in0.0 mm
12:50 PM 93.0°F33.9°C 61.3°F16.3°C 35% 9.8 mph SW15.8 kmh SW 12.4 mph20.0 kmh 30.00 in1015.9 mb 0.00 in0.0 mm 0.00 in/hr0.0 mm/hr 0.00 in0.0 mm
12:40 PM 93.2°F34.0°C 61.5°F16.4°C 35% 9.5 mph S15.3 kmh S 11.9 mph19.2 kmh 30.00 in1015.9 mb 0.00 in0.0 mm 0.00 in/hr0.0 mm/hr 0.00 in0.0 mm
12:30 PM 93.7°F34.3°C 61.1°F16.2°C 34% 8.2 mph SSW13.2 kmh SSW 14.9 mph24.0 kmh 30.00 in1015.9 mb 0.00 in0.0 mm 0.00 in/hr0.0 mm/hr 0.00 in0.0 mm
12:20 PM 92.9°F33.8°C 60.4°F15.8°C 34% 9.8 mph SSW15.8 kmh SSW 14.5 mph23.3 kmh 30.00 in1015.9 mb 0.00 in0.0 mm 0.00 in/hr0.0 mm/hr 0.00 in0.0 mm
12:10 PM 92.8°F33.8°C 60.3°F15.7°C 34% 13.1 mph SSW21.1 kmh SSW 18.3 mph29.5 kmh 30.00 in1015.9 mb 0.00 in0.0 mm 0.00 in/hr0.0 mm/hr 0.00 in0.0 mm
12:00 PM 92.4°F33.6°C 60.8°F16.0°C 35% 6.7 mph S10.8 kmh S 12.7 mph20.4 kmh 30.00 in1015.9 mb 0.00 in0.0 mm 0.00 in/hr0.0 mm/hr 0.00 in0.0 mm
11:50 AM 92.0°F33.3°C 62.0°F16.7°C 37% 8.9 mph SSW14.3 kmh SSW 11.0 mph17.7 kmh 30.01 in1016.3 mb 0.00 in0.0 mm 0.00 in/hr0.0 mm/hr 0.00 in0.0 mm
11:40 AM 91.6°F33.1°C 60.9°F16.1°C 36% 13.6 mph S21.9 kmh S 20.8 mph33.5 kmh 30.01 in1016.3 mb 0.00 in0.0 mm 0.00 in/hr0.0 mm/hr 0.00 in0.0 mm
11:30 AM 91.1°F32.8°C 61.2°F16.2°C 37% 11.7 mph S18.8 kmh S 16.9 mph27.2 kmh 30.01 in1016.3 mb 0.00 in0.0 mm 0.00 in/hr0.0 mm/hr 0.00 in0.0 mm
11:20 AM 90.8°F32.7°C 60.1°F15.6°C 36% 11.7 mph SSW18.8 kmh SSW 16.6 mph26.7 kmh 30.01 in1016.3 mb 0.00 in0.0 mm 0.00 in/hr0.0 mm/hr 0.00 in0.0 mm
11:10 AM 90.9°F32.7°C 60.3°F15.7°C 36% 10.7 mph SSW17.2 kmh SSW 13.6 mph21.9 kmh 30.00 in1015.9 mb 0.00 in0.0 mm 0.00 in/hr0.0 mm/hr 0.00 in0.0 mm
11:00 AM 90.8°F32.7°C 60.2°F15.7°C 36% 10.6 mph SSW17.1 kmh SSW 13.6 mph21.9 kmh 30.00 in1015.9 mb 0.00 in0.0 mm 0.00 in/hr0.0 mm/hr 0.00 in0.0 mm
10:50 AM 91.1°F32.8°C 60.4°F15.8°C 36% 8.8 mph SSW14.2 kmh SSW 20.9 mph33.6 kmh 30.00 in1015.9 mb 0.00 in0.0 mm 0.00 in/hr0.0 mm/hr 0.00 in0.0 mm
10:40 AM 90.2°F32.3°C 61.2°F16.2°C 38% 9.9 mph S15.9 kmh S 15.5 mph24.9 kmh 30.00 in1015.9 mb 0.00 in0.0 mm 0.00 in/hr0.0 mm/hr 0.00 in0.0 mm
10:30 AM 90.3°F32.4°C 61.2°F16.2°C 38% 7.7 mph S12.4 kmh S 18.3 mph29.5 kmh 30.00 in1015.9 mb 0.00 in0.0 mm 0.00 in/hr0.0 mm/hr 0.00 in0.0 mm
10:20 AM 89.0°F31.7°C 61.6°F16.4°C 40% 12.2 mph SSW19.6 kmh SSW 20.4 mph32.8 kmh 30.00 in1015.9 mb 0.00 in0.0 mm 0.00 in/hr0.0 mm/hr 0.00 in0.0 mm
10:10 AM 89.2°F31.8°C 61.7°F16.5°C 40% 9.7 mph S15.6 kmh S 15.4 mph24.8 kmh 30.00 in1015.9 mb 0.00 in0.0 mm 0.00 in/hr0.0 mm/hr 0.00 in0.0 mm
10:00 AM 88.8°F31.6°C 61.3°F16.3°C 40% 10.7 mph S17.2 kmh S 255.1 mph410.5 kmh 30.01 in1016.3 mb 0.00 in0.0 mm 0.00 in/hr0.0 mm/hr 0.00 in0.0 mm
09:50 AM 88.4°F31.3°C 61.0°F16.1°C 40% 12.4 mph S20.0 kmh S 18.2 mph29.3 kmh 30.01 in1016.3 mb 0.00 in0.0 mm 0.00 in/hr0.0 mm/hr 0.00 in0.0 mm
09:40 AM 88.2°F31.2°C 62.2°F16.8°C 42% 11.5 mph S18.5 kmh S 20.1 mph32.3 kmh 30.01 in1016.3 mb 0.00 in0.0 mm 0.00 in/hr0.0 mm/hr 0.00 in0.0 mm
09:30 AM 87.5°F30.8°C 62.9°F17.2°C 44% 9.4 mph S15.1 kmh S 13.0 mph20.9 kmh 30.01 in1016.3 mb 0.00 in0.0 mm 0.00 in/hr0.0 mm/hr 0.00 in0.0 mm
09:20 AM 86.6°F30.3°C 62.7°F17.1°C 45% 11.3 mph S18.2 kmh S 17.6 mph28.3 kmh 30.01 in1016.3 mb 0.00 in0.0 mm 0.00 in/hr0.0 mm/hr 0.00 in0.0 mm
09:10 AM 86.6°F30.3°C 62.8°F17.1°C 45% 9.9 mph SSW15.9 kmh SSW 15.6 mph25.1 kmh 30.00 in1015.9 mb 0.00 in0.0 mm 0.00 in/hr0.0 mm/hr 0.00 in0.0 mm
09:00 AM 86.7°F30.4°C 62.8°F17.1°C 45% 10.5 mph S16.9 kmh S 15.2 mph24.5 kmh 30.00 in1015.9 mb 0.00 in0.0 mm 0.00 in/hr0.0 mm/hr 0.00 in0.0 mm
08:50 AM 86.1°F30.1°C 62.3°F16.8°C 45% 11.1 mph S17.9 kmh S 15.9 mph25.6 kmh 30.00 in1015.9 mb 0.00 in0.0 mm 0.00 in/hr0.0 mm/hr 0.00 in0.0 mm
08:40 AM 86.0°F30.0°C 62.8°F17.1°C 46% 10.6 mph S17.1 kmh S 16.9 mph27.2 kmh 30.00 in1015.9 mb 0.00 in0.0 mm 0.00 in/hr0.0 mm/hr 0.00 in0.0 mm
08:30 AM 85.8°F29.9°C 62.0°F16.7°C 45% 12.1 mph S19.5 kmh S 12.7 mph20.4 kmh 30.00 in1015.9 mb 0.00 in0.0 mm 0.00 in/hr0.0 mm/hr 0.00 in0.0 mm
08:20 AM 85.6°F29.8°C 61.9°F16.6°C 45% 10.2 mph SSW16.4 kmh SSW 17.7 mph28.5 kmh 30.00 in1015.9 mb 0.00 in0.0 mm 0.00 in/hr0.0 mm/hr 0.00 in0.0 mm
08:10 AM 85.8°F29.9°C 61.4°F16.3°C 44% 6.7 mph S10.8 kmh S 10.0 mph16.1 kmh 29.99 in1015.6 mb 0.00 in0.0 mm 0.00 in/hr0.0 mm/hr 0.00 in0.0 mm
08:00 AM 84.8°F29.3°C 61.1°F16.2°C 45% 10.5 mph SSW16.9 kmh SSW 15.1 mph24.3 kmh 29.99 in1015.6 mb 0.00 in0.0 mm 0.00 in/hr0.0 mm/hr 0.00 in0.0 mm
07:50 AM 84.6°F29.2°C 61.6°F16.4°C 46% 9.7 mph S15.6 kmh S 16.2 mph26.1 kmh 29.99 in1015.6 mb 0.00 in0.0 mm 0.00 in/hr0.0 mm/hr 0.00 in0.0 mm
07:40 AM 84.3°F29.1°C 61.3°F16.3°C 46% 12.5 mph S20.1 kmh S 18.1 mph29.1 kmh 29.99 in1015.6 mb 0.00 in0.0 mm 0.00 in/hr0.0 mm/hr 0.00 in0.0 mm
07:30 AM 83.8°F28.8°C 61.4°F16.3°C 47% 12.1 mph S19.5 kmh S 15.2 mph24.5 kmh 29.99 in1015.6 mb 0.00 in0.0 mm 0.00 in/hr0.0 mm/hr 0.00 in0.0 mm
07:20 AM 83.4°F28.6°C 61.1°F16.2°C 47% 14.2 mph S22.9 kmh S 21.4 mph34.4 kmh 29.99 in1015.6 mb 0.00 in0.0 mm 0.00 in/hr0.0 mm/hr 0.00 in0.0 mm
07:10 AM 83.9°F28.8°C 60.9°F16.1°C 46% 12.9 mph SSW20.8 kmh SSW 20.5 mph33.0 kmh 29.99 in1015.6 mb 0.00 in0.0 mm 0.00 in/hr0.0 mm/hr 0.00 in0.0 mm
07:00 AM 83.7°F28.7°C 60.7°F15.9°C 46% 8.9 mph S14.3 kmh S 16.4 mph26.4 kmh 29.98 in1015.2 mb 0.00 in0.0 mm 0.00 in/hr0.0 mm/hr 0.00 in0.0 mm
06:50 AM 83.7°F28.7°C 60.8°F16.0°C 46% 11.7 mph S18.8 kmh S 16.0 mph25.7 kmh 29.98 in1015.2 mb 0.00 in0.0 mm 0.00 in/hr0.0 mm/hr 0.00 in0.0 mm
06:40 AM 83.6°F28.7°C 60.7°F15.9°C 46% 12.5 mph S20.1 kmh S 22.1 mph35.6 kmh 29.98 in1015.2 mb 0.00 in0.0 mm 0.00 in/hr0.0 mm/hr 0.00 in0.0 mm
06:30 AM 83.6°F28.7°C 61.3°F16.3°C 47% 8.7 mph S14.0 kmh S 13.5 mph21.7 kmh 29.98 in1015.2 mb 0.00 in0.0 mm 0.00 in/hr0.0 mm/hr 0.00 in0.0 mm
06:20 AM 83.6°F28.7°C 61.2°F16.2°C 47% 7.3 mph S11.7 kmh S 14.3 mph23.0 kmh 29.98 in1015.2 mb 0.00 in0.0 mm 0.00 in/hr0.0 mm/hr 0.00 in0.0 mm
06:10 AM 83.2°F28.4°C 61.4°F16.3°C 48% 7.0 mph S11.3 kmh S 13.1 mph21.1 kmh 29.98 in1015.2 mb 0.00 in0.0 mm 0.00 in/hr0.0 mm/hr 0.00 in0.0 mm
06:00 AM 83.0°F28.3°C 62.4°F16.9°C 50% 9.2 mph SSW14.8 kmh SSW 16.7 mph26.9 kmh 29.98 in1015.2 mb 0.00 in0.0 mm 0.00 in/hr0.0 mm/hr 0.00 in0.0 mm
05:50 AM 82.8°F28.2°C 62.3°F16.8°C 50% 9.1 mph SSW14.6 kmh SSW 14.8 mph23.8 kmh 29.97 in1014.9 mb 0.00 in0.0 mm 0.00 in/hr0.0 mm/hr 0.00 in0.0 mm
05:40 AM 82.4°F28.0°C 62.5°F16.9°C 51% 8.5 mph S13.7 kmh S 13.1 mph21.1 kmh 29.97 in1014.9 mb 0.00 in0.0 mm 0.00 in/hr0.0 mm/hr 0.00 in0.0 mm
05:30 AM 82.6°F28.1°C 62.1°F16.7°C 50% 7.7 mph S12.4 kmh S 14.7 mph23.7 kmh 29.97 in1014.9 mb 0.00 in0.0 mm 0.00 in/hr0.0 mm/hr 0.00 in0.0 mm
05:20 AM 82.8°F28.2°C 61.7°F16.5°C 49% 6.1 mph S9.8 kmh S 9.2 mph14.8 kmh 29.96 in1014.6 mb 0.00 in0.0 mm 0.00 in/hr0.0 mm/hr 0.00 in0.0 mm
05:10 AM 82.6°F28.1°C 62.0°F16.7°C 50% 7.9 mph SSE12.7 kmh SSE 8.6 mph13.8 kmh 29.96 in1014.6 mb 0.00 in0.0 mm 0.00 in/hr0.0 mm/hr 0.00 in0.0 mm
05:00 AM 82.7°F28.2°C 62.1°F16.7°C 50% 6.5 mph S10.5 kmh S 11.9 mph19.2 kmh 29.96 in1014.6 mb 0.00 in0.0 mm 0.00 in/hr0.0 mm/hr 0.00 in0.0 mm
04:50 AM 82.5°F28.1°C 62.0°F16.7°C 50% 8.7 mph S14.0 kmh S 15.2 mph24.5 kmh 29.96 in1014.6 mb 0.00 in0.0 mm 0.00 in/hr0.0 mm/hr 0.00 in0.0 mm
04:40 AM 82.5°F28.1°C 62.6°F17.0°C 51% 7.2 mph S11.6 kmh S 12.3 mph19.8 kmh 29.96 in1014.6 mb 0.00 in0.0 mm 0.00 in/hr0.0 mm/hr 0.00 in0.0 mm
04:30 AM 82.8°F28.2°C 62.3°F16.8°C 50% 2.6 mph SSE4.2 kmh SSE 6.6 mph10.6 kmh 29.96 in1014.6 mb 0.00 in0.0 mm 0.00 in/hr0.0 mm/hr 0.00 in0.0 mm
04:20 AM 82.6°F28.1°C 62.6°F17.0°C 51% 9.3 mph S15.0 kmh S 11.6 mph18.7 kmh 29.96 in1014.6 mb 0.00 in0.0 mm 0.00 in/hr0.0 mm/hr 0.00 in0.0 mm
04:10 AM 82.8°F28.2°C 62.2°F16.8°C 50% 9.5 mph S15.3 kmh S 18.0 mph29.0 kmh 29.96 in1014.6 mb 0.00 in0.0 mm 0.00 in/hr0.0 mm/hr 0.00 in0.0 mm
04:00 AM 82.7°F28.2°C 62.7°F17.1°C 51% 10.0 mph S16.1 kmh S 16.1 mph25.9 kmh 29.96 in1014.6 mb 0.00 in0.0 mm 0.00 in/hr0.0 mm/hr 0.00 in0.0 mm
03:50 AM 82.8°F28.2°C 62.3°F16.8°C 50% 10.6 mph SSE17.1 kmh SSE 13.1 mph21.1 kmh 29.95 in1014.2 mb 0.00 in0.0 mm 0.00 in/hr0.0 mm/hr 0.00 in0.0 mm
03:40 AM 82.5°F28.1°C 62.6°F17.0°C 51% 12.3 mph S19.8 kmh S 16.5 mph26.6 kmh 29.96 in1014.6 mb 0.00 in0.0 mm 0.00 in/hr0.0 mm/hr 0.00 in0.0 mm
03:30 AM 82.4°F28.0°C 63.0°F17.2°C 52% 9.7 mph S15.6 kmh S 15.8 mph25.4 kmh 29.96 in1014.6 mb 0.00 in0.0 mm 0.00 in/hr0.0 mm/hr 0.00 in0.0 mm
03:20 AM 82.5°F28.1°C 63.1°F17.3°C 52% 9.9 mph SSW15.9 kmh SSW 15.0 mph24.1 kmh 29.96 in1014.6 mb 0.00 in0.0 mm 0.00 in/hr0.0 mm/hr 0.00 in0.0 mm
03:10 AM 82.6°F28.1°C 62.7°F17.1°C 51% 8.5 mph S13.7 kmh S 12.6 mph20.3 kmh 29.96 in1014.6 mb 0.00 in0.0 mm 0.00 in/hr0.0 mm/hr 0.00 in0.0 mm
03:00 AM 82.5°F28.1°C 62.5°F16.9°C 51% 6.7 mph S10.8 kmh S 10.6 mph17.1 kmh 29.96 in1014.6 mb 0.00 in0.0 mm 0.00 in/hr0.0 mm/hr 0.00 in0.0 mm
02:50 AM 82.8°F28.2°C 62.9°F17.2°C 51% 5.8 mph S9.3 kmh S 9.4 mph15.1 kmh 29.96 in1014.6 mb 0.00 in0.0 mm 0.00 in/hr0.0 mm/hr 0.00 in0.0 mm
02:40 AM 82.7°F28.2°C 62.7°F17.1°C 51% 4.7 mph SSW7.6 kmh SSW 5.2 mph8.4 kmh 29.97 in1014.9 mb 0.00 in0.0 mm 0.00 in/hr0.0 mm/hr 0.00 in0.0 mm
02:30 AM 82.7°F28.2°C 63.2°F17.3°C 52% 3.3 mph SSW5.3 kmh SSW 4.2 mph6.8 kmh 29.97 in1014.9 mb 0.00 in0.0 mm 0.00 in/hr0.0 mm/hr 0.00 in0.0 mm
02:20 AM 82.5°F28.1°C 63.6°F17.6°C 53% 7.6 mph SW12.2 kmh SW 10.6 mph17.1 kmh 29.97 in1014.9 mb 0.00 in0.0 mm 0.00 in/hr0.0 mm/hr 0.00 in0.0 mm
02:10 AM 82.3°F27.9°C 63.5°F17.5°C 53% 5.9 mph S9.5 kmh S 11.4 mph18.3 kmh 29.97 in1014.9 mb 0.00 in0.0 mm 0.00 in/hr0.0 mm/hr 0.00 in0.0 mm
02:00 AM 82.5°F28.1°C 63.1°F17.3°C 52% 4.6 mph S7.4 kmh S 6.1 mph9.8 kmh 29.97 in1014.9 mb 0.00 in0.0 mm 0.00 in/hr0.0 mm/hr 0.00 in0.0 mm
01:50 AM 82.5°F28.1°C 63.1°F17.3°C 52% 4.2 mph S6.8 kmh S 5.3 mph8.5 kmh 29.97 in1014.9 mb 0.00 in0.0 mm 0.00 in/hr0.0 mm/hr 0.00 in0.0 mm
01:40 AM 82.5°F28.1°C 63.1°F17.3°C 52% 3.0 mph S4.8 kmh S 4.2 mph6.8 kmh 29.98 in1015.2 mb 0.00 in0.0 mm 0.00 in/hr0.0 mm/hr 0.00 in0.0 mm
01:30 AM 82.4°F28.0°C 63.0°F17.2°C 52% 3.9 mph S6.3 kmh S 4.5 mph7.2 kmh 29.98 in1015.2 mb 0.00 in0.0 mm 0.00 in/hr0.0 mm/hr 0.00 in0.0 mm
12:10 AM 82.3°F27.9°C 64.0°F17.8°C 54% 5.3 mph S8.5 kmh S 8.7 mph14.0 kmh 29.98 in1015.2 mb 0.00 in0.0 mm 0.00 in/hr0.0 mm/hr 0.00 in0.0 mm
12:00 AM 82.1°F27.8°C 63.8°F17.7°C 54% 6.9 mph S11.1 kmh S 8.8 mph14.2 kmh 29.99 in1015.6 mb 0.00 in0.0 mm 0.00 in/hr0.0 mm/hr 0.00 in0.0 mm